sensor_id;sensor_type;location;lat;lon;timestamp;P1;durP1;ratioP1;P2;durP2;ratioP2
8913;SDS011;4492;48.736;9.092;2022-08-19T00:01:46;15.53;;;13.73;;
8913;SDS011;4492;48.736;9.092;2022-08-19T00:04:14;16.97;;;14.03;;
8913;SDS011;4492;48.736;9.092;2022-08-19T00:06:41;17.50;;;13.73;;
8913;SDS011;4492;48.736;9.092;2022-08-19T00:09:09;16.93;;;14.40;;
8913;SDS011;4492;48.736;9.092;2022-08-19T00:11:37;17.00;;;14.33;;
8913;SDS011;4492;48.736;9.092;2022-08-19T00:14:04;18.17;;;14.60;;
8913;SDS011;4492;48.736;9.092;2022-08-19T00:16:31;18.57;;;14.03;;
8913;SDS011;4492;48.736;9.092;2022-08-19T00:18:57;20.07;;;14.93;;
8913;SDS011;4492;48.736;9.092;2022-08-19T00:21:23;18.50;;;14.40;;
8913;SDS011;4492;48.736;9.092;2022-08-19T00:23:51;19.63;;;14.57;;
8913;SDS011;4492;48.736;9.092;2022-08-19T00:26:17;15.83;;;13.77;;
8913;SDS011;4492;48.736;9.092;2022-08-19T00:28:43;17.57;;;13.63;;
8913;SDS011;4492;48.736;9.092;2022-08-19T00:31:09;17.17;;;13.90;;
8913;SDS011;4492;48.736;9.092;2022-08-19T00:33:35;18.60;;;15.20;;
8913;SDS011;4492;48.736;9.092;2022-08-19T00:36:01;16.33;;;14.13;;
8913;SDS011;4492;48.736;9.092;2022-08-19T00:38:29;17.80;;;13.77;;
8913;SDS011;4492;48.736;9.092;2022-08-19T00:40:55;17.13;;;14.13;;
8913;SDS011;4492;48.736;9.092;2022-08-19T00:43:22;16.27;;;14.07;;
8913;SDS011;4492;48.736;9.092;2022-08-19T00:45:49;18.27;;;14.67;;
8913;SDS011;4492;48.736;9.092;2022-08-19T00:48:15;18.27;;;15.20;;
8913;SDS011;4492;48.736;9.092;2022-08-19T00:50:42;17.37;;;14.50;;
8913;SDS011;4492;48.736;9.092;2022-08-19T00:53:10;18.03;;;14.67;;
8913;SDS011;4492;48.736;9.092;2022-08-19T00:55:37;18.83;;;15.93;;
8913;SDS011;4492;48.736;9.092;2022-08-19T00:58:06;21.00;;;15.20;;
8913;SDS011;4492;48.736;9.092;2022-08-19T01:00:35;20.03;;;15.90;;
8913;SDS011;4492;48.736;9.092;2022-08-19T01:03:09;17.63;;;14.57;;
8913;SDS011;4492;48.736;9.092;2022-08-19T01:05:36;16.77;;;14.77;;
8913;SDS011;4492;48.736;9.092;2022-08-19T01:08:04;18.93;;;14.73;;
8913;SDS011;4492;48.736;9.092;2022-08-19T01:10:33;21.30;;;15.00;;
8913;SDS011;4492;48.736;9.092;2022-08-19T01:13:02;17.37;;;14.30;;
8913;SDS011;4492;48.736;9.092;2022-08-19T01:15:30;17.90;;;14.97;;
8913;SDS011;4492;48.736;9.092;2022-08-19T01:17:59;18.67;;;15.17;;
8913;SDS011;4492;48.736;9.092;2022-08-19T01:20:30;19.90;;;14.90;;
8913;SDS011;4492;48.736;9.092;2022-08-19T01:22:58;18.40;;;14.63;;
8913;SDS011;4492;48.736;9.092;2022-08-19T01:25:46;17.87;;;14.83;;
8913;SDS011;4492;48.736;9.092;2022-08-19T01:28:19;17.93;;;13.90;;
8913;SDS011;4492;48.736;9.092;2022-08-19T01:30:47;16.23;;;14.40;;
8913;SDS011;4492;48.736;9.092;2022-08-19T01:33:13;20.97;;;15.37;;
8913;SDS011;4492;48.736;9.092;2022-08-19T01:35:39;18.80;;;15.73;;
8913;SDS011;4492;48.736;9.092;2022-08-19T01:38:07;18.03;;;15.10;;
8913;SDS011;4492;48.736;9.092;2022-08-19T01:40:37;20.97;;;15.37;;
8913;SDS011;4492;48.736;9.092;2022-08-19T01:43:05;16.33;;;14.07;;
8913;SDS011;4492;48.736;9.092;2022-08-19T01:45:32;19.97;;;15.90;;
8913;SDS011;4492;48.736;9.092;2022-08-19T01:47:59;19.03;;;15.73;;
8913;SDS011;4492;48.736;9.092;2022-08-19T01:50:26;19.43;;;15.10;;
8913;SDS011;4492;48.736;9.092;2022-08-19T01:52:52;20.57;;;15.90;;
8913;SDS011;4492;48.736;9.092;2022-08-19T01:55:19;20.97;;;16.07;;
8913;SDS011;4492;48.736;9.092;2022-08-19T01:57:47;23.90;;;16.83;;
8913;SDS011;4492;48.736;9.092;2022-08-19T02:00:18;20.57;;;15.97;;
8913;SDS011;4492;48.736;9.092;2022-08-19T02:02:46;17.00;;;15.13;;
8913;SDS011;4492;48.736;9.092;2022-08-19T02:05:12;20.77;;;16.23;;
8913;SDS011;4492;48.736;9.092;2022-08-19T02:07:38;20.90;;;15.97;;
8913;SDS011;4492;48.736;9.092;2022-08-19T02:10:06;19.73;;;15.40;;
8913;SDS011;4492;48.736;9.092;2022-08-19T02:12:34;21.00;;;16.10;;
8913;SDS011;4492;48.736;9.092;2022-08-19T02:15:00;18.30;;;15.80;;
8913;SDS011;4492;48.736;9.092;2022-08-19T02:17:27;20.33;;;16.30;;
8913;SDS011;4492;48.736;9.092;2022-08-19T02:19:53;19.13;;;16.03;;
8913;SDS011;4492;48.736;9.092;2022-08-19T02:22:20;20.60;;;16.50;;
8913;SDS011;4492;48.736;9.092;2022-08-19T02:24:45;21.30;;;16.77;;
8913;SDS011;4492;48.736;9.092;2022-08-19T02:27:12;23.83;;;17.43;;
8913;SDS011;4492;48.736;9.092;2022-08-19T02:29:38;22.57;;;16.27;;
8913;SDS011;4492;48.736;9.092;2022-08-19T02:32:04;22.10;;;17.23;;
8913;SDS011;4492;48.736;9.092;2022-08-19T02:34:29;23.67;;;18.27;;
8913;SDS011;4492;48.736;9.092;2022-08-19T02:36:55;22.37;;;18.37;;
8913;SDS011;4492;48.736;9.092;2022-08-19T02:39:21;21.27;;;16.90;;
8913;SDS011;4492;48.736;9.092;2022-08-19T02:41:46;20.90;;;16.70;;
8913;SDS011;4492;48.736;9.092;2022-08-19T02:44:12;23.30;;;18.30;;
8913;SDS011;4492;48.736;9.092;2022-08-19T02:46:37;21.37;;;17.77;;
8913;SDS011;4492;48.736;9.092;2022-08-19T02:49:04;26.47;;;18.83;;
8913;SDS011;4492;48.736;9.092;2022-08-19T02:51:33;23.73;;;18.20;;
8913;SDS011;4492;48.736;9.092;2022-08-19T02:54:01;24.03;;;18.47;;
8913;SDS011;4492;48.736;9.092;2022-08-19T02:56:29;23.40;;;18.70;;
8913;SDS011;4492;48.736;9.092;2022-08-19T02:58:55;26.53;;;19.10;;
8913;SDS011;4492;48.736;9.092;2022-08-19T03:01:22;25.60;;;18.50;;
8913;SDS011;4492;48.736;9.092;2022-08-19T03:03:58;29.00;;;19.63;;
8913;SDS011;4492;48.736;9.092;2022-08-19T03:06:26;27.53;;;19.67;;
8913;SDS011;4492;48.736;9.092;2022-08-19T03:08:52;28.53;;;19.17;;
8913;SDS011;4492;48.736;9.092;2022-08-19T03:11:21;25.37;;;20.27;;
8913;SDS011;4492;48.736;9.092;2022-08-19T03:13:49;25.80;;;20.47;;
8913;SDS011;4492;48.736;9.092;2022-08-19T03:16:16;27.73;;;20.30;;
8913;SDS011;4492;48.736;9.092;2022-08-19T03:18:45;27.00;;;20.27;;
8913;SDS011;4492;48.736;9.092;2022-08-19T03:21:15;28.17;;;20.67;;
8913;SDS011;4492;48.736;9.092;2022-08-19T03:23:42;25.20;;;19.73;;
8913;SDS011;4492;48.736;9.092;2022-08-19T03:26:07;28.00;;;21.63;;
8913;SDS011;4492;48.736;9.092;2022-08-19T03:28:33;26.47;;;20.57;;
8913;SDS011;4492;48.736;9.092;2022-08-19T03:31:02;28.83;;;21.40;;
8913;SDS011;4492;48.736;9.092;2022-08-19T03:33:30;26.77;;;20.37;;
8913;SDS011;4492;48.736;9.092;2022-08-19T03:36:00;27.07;;;21.70;;
8913;SDS011;4492;48.736;9.092;2022-08-19T03:38:54;26.83;;;22.20;;
8913;SDS011;4492;48.736;9.092;2022-08-19T03:41:22;27.53;;;21.33;;
8913;SDS011;4492;48.736;9.092;2022-08-19T03:43:49;27.67;;;21.03;;
8913;SDS011;4492;48.736;9.092;2022-08-19T03:46:17;24.97;;;20.50;;
8913;SDS011;4492;48.736;9.092;2022-08-19T03:48:47;28.40;;;22.27;;
8913;SDS011;4492;48.736;9.092;2022-08-19T03:51:20;31.23;;;22.27;;
8913;SDS011;4492;48.736;9.092;2022-08-19T03:53:49;28.20;;;21.03;;
8913;SDS011;4492;48.736;9.092;2022-08-19T03:56:15;29.67;;;22.73;;
8913;SDS011;4492;48.736;9.092;2022-08-19T03:58:41;26.23;;;20.90;;
8913;SDS011;4492;48.736;9.092;2022-08-19T04:01:08;28.73;;;21.73;;
8913;SDS011;4492;48.736;9.092;2022-08-19T04:03:35;29.73;;;22.03;;
8913;SDS011;4492;48.736;9.092;2022-08-19T04:06:11;27.80;;;21.77;;
8913;SDS011;4492;48.736;9.092;2022-08-19T04:08:42;32.57;;;23.90;;
8913;SDS011;4492;48.736;9.092;2022-08-19T04:11:09;27.50;;;22.20;;
8913;SDS011;4492;48.736;9.092;2022-08-19T04:13:36;30.23;;;21.97;;
8913;SDS011;4492;48.736;9.092;2022-08-19T04:16:03;30.50;;;22.87;;
8913;SDS011;4492;48.736;9.092;2022-08-19T04:18:30;30.63;;;23.83;;
8913;SDS011;4492;48.736;9.092;2022-08-19T04:20:56;28.90;;;23.00;;
8913;SDS011;4492;48.736;9.092;2022-08-19T04:23:22;32.53;;;24.30;;
8913;SDS011;4492;48.736;9.092;2022-08-19T04:25:48;29.53;;;23.10;;
8913;SDS011;4492;48.736;9.092;2022-08-19T04:28:14;32.17;;;22.73;;
8913;SDS011;4492;48.736;9.092;2022-08-19T04:30:45;30.40;;;22.53;;
8913;SDS011;4492;48.736;9.092;2022-08-19T04:33:13;33.00;;;24.13;;
8913;SDS011;4492;48.736;9.092;2022-08-19T04:35:41;31.30;;;22.60;;
8913;SDS011;4492;48.736;9.092;2022-08-19T04:38:08;32.47;;;23.10;;
8913;SDS011;4492;48.736;9.092;2022-08-19T04:40:39;32.97;;;25.57;;
8913;SDS011;4492;48.736;9.092;2022-08-19T04:43:25;34.33;;;24.67;;
8913;SDS011;4492;48.736;9.092;2022-08-19T04:45:51;31.67;;;22.40;;
8913;SDS011;4492;48.736;9.092;2022-08-19T04:48:16;31.10;;;24.70;;
8913;SDS011;4492;48.736;9.092;2022-08-19T04:50:51;33.70;;;24.40;;
8913;SDS011;4492;48.736;9.092;2022-08-19T04:53:25;35.37;;;24.37;;
8913;SDS011;4492;48.736;9.092;2022-08-19T04:55:55;37.37;;;24.93;;
8913;SDS011;4492;48.736;9.092;2022-08-19T04:58:22;30.97;;;24.53;;
8913;SDS011;4492;48.736;9.092;2022-08-19T05:00:52;32.00;;;23.90;;
8913;SDS011;4492;48.736;9.092;2022-08-19T05:03:18;31.10;;;24.03;;
8913;SDS011;4492;48.736;9.092;2022-08-19T05:05:44;33.83;;;24.53;;
8913;SDS011;4492;48.736;9.092;2022-08-19T05:08:13;31.33;;;23.97;;
8913;SDS011;4492;48.736;9.092;2022-08-19T05:10:44;30.73;;;23.37;;
8913;SDS011;4492;48.736;9.092;2022-08-19T05:13:11;31.83;;;23.87;;
8913;SDS011;4492;48.736;9.092;2022-08-19T05:15:36;32.50;;;24.80;;
8913;SDS011;4492;48.736;9.092;2022-08-19T05:18:02;31.40;;;24.13;;
8913;SDS011;4492;48.736;9.092;2022-08-19T05:20:46;34.07;;;23.83;;
8913;SDS011;4492;48.736;9.092;2022-08-19T05:23:30;34.20;;;23.30;;
8913;SDS011;4492;48.736;9.092;2022-08-19T05:25:55;30.47;;;23.97;;
8913;SDS011;4492;48.736;9.092;2022-08-19T05:28:21;35.83;;;25.10;;
8913;SDS011;4492;48.736;9.092;2022-08-19T05:30:46;32.70;;;23.97;;
8913;SDS011;4492;48.736;9.092;2022-08-19T05:33:13;33.23;;;24.47;;
8913;SDS011;4492;48.736;9.092;2022-08-19T05:35:39;32.40;;;22.90;;
8913;SDS011;4492;48.736;9.092;2022-08-19T05:38:06;30.43;;;23.13;;
8913;SDS011;4492;48.736;9.092;2022-08-19T05:40:34;29.33;;;23.53;;
8913;SDS011;4492;48.736;9.092;2022-08-19T05:43:07;30.63;;;23.33;;
8913;SDS011;4492;48.736;9.092;2022-08-19T05:45:37;27.53;;;22.03;;
8913;SDS011;4492;48.736;9.092;2022-08-19T05:48:05;35.50;;;23.97;;
8913;SDS011;4492;48.736;9.092;2022-08-19T05:50:30;34.70;;;23.83;;
8913;SDS011;4492;48.736;9.092;2022-08-19T05:52:56;28.10;;;22.03;;
8913;SDS011;4492;48.736;9.092;2022-08-19T05:55:22;33.23;;;23.23;;
8913;SDS011;4492;48.736;9.092;2022-08-19T05:57:48;27.93;;;21.93;;
8913;SDS011;4492;48.736;9.092;2022-08-19T06:00:14;29.47;;;22.47;;
8913;SDS011;4492;48.736;9.092;2022-08-19T06:02:40;28.43;;;22.50;;
8913;SDS011;4492;48.736;9.092;2022-08-19T06:05:06;25.90;;;21.73;;
8913;SDS011;4492;48.736;9.092;2022-08-19T06:07:34;28.90;;;21.60;;
8913;SDS011;4492;48.736;9.092;2022-08-19T06:10:02;31.10;;;22.97;;
8913;SDS011;4492;48.736;9.092;2022-08-19T06:12:30;28.90;;;21.77;;
8913;SDS011;4492;48.736;9.092;2022-08-19T06:14:58;27.40;;;22.07;;
8913;SDS011;4492;48.736;9.092;2022-08-19T06:17:25;29.10;;;22.97;;
8913;SDS011;4492;48.736;9.092;2022-08-19T06:19:51;30.17;;;22.43;;
8913;SDS011;4492;48.736;9.092;2022-08-19T06:22:17;29.10;;;23.30;;
8913;SDS011;4492;48.736;9.092;2022-08-19T06:24:42;27.83;;;22.37;;
8913;SDS011;4492;48.736;9.092;2022-08-19T06:27:08;28.77;;;22.63;;
8913;SDS011;4492;48.736;9.092;2022-08-19T06:29:34;33.27;;;24.00;;
8913;SDS011;4492;48.736;9.092;2022-08-19T06:32:01;31.07;;;24.30;;
8913;SDS011;4492;48.736;9.092;2022-08-19T06:34:28;32.17;;;23.20;;
8913;SDS011;4492;48.736;9.092;2022-08-19T06:36:57;31.07;;;23.43;;
8913;SDS011;4492;48.736;9.092;2022-08-19T06:39:26;27.63;;;23.10;;
8913;SDS011;4492;48.736;9.092;2022-08-19T06:41:55;30.23;;;23.40;;
8913;SDS011;4492;48.736;9.092;2022-08-19T06:44:24;30.80;;;22.43;;
8913;SDS011;4492;48.736;9.092;2022-08-19T06:46:52;32.63;;;23.10;;
8913;SDS011;4492;48.736;9.092;2022-08-19T06:49:18;30.07;;;21.90;;
8913;SDS011;4492;48.736;9.092;2022-08-19T06:51:45;29.00;;;23.37;;
8913;SDS011;4492;48.736;9.092;2022-08-19T06:54:12;30.70;;;22.97;;
8913;SDS011;4492;48.736;9.092;2022-08-19T06:56:39;28.33;;;22.43;;
8913;SDS011;4492;48.736;9.092;2022-08-19T06:59:10;29.53;;;21.77;;
8913;SDS011;4492;48.736;9.092;2022-08-19T07:01:39;28.87;;;22.60;;
8913;SDS011;4492;48.736;9.092;2022-08-19T07:04:07;27.30;;;21.73;;
8913;SDS011;4492;48.736;9.092;2022-08-19T07:06:34;27.27;;;22.57;;
8913;SDS011;4492;48.736;9.092;2022-08-19T07:09:01;28.30;;;21.33;;
8913;SDS011;4492;48.736;9.092;2022-08-19T07:11:31;30.27;;;21.53;;
8913;SDS011;4492;48.736;9.092;2022-08-19T07:13:57;29.97;;;22.43;;
8913;SDS011;4492;48.736;9.092;2022-08-19T07:16:23;31.30;;;22.87;;
8913;SDS011;4492;48.736;9.092;2022-08-19T07:18:50;31.47;;;22.73;;
8913;SDS011;4492;48.736;9.092;2022-08-19T07:21:18;27.63;;;21.73;;
8913;SDS011;4492;48.736;9.092;2022-08-19T07:23:46;29.87;;;21.57;;
8913;SDS011;4492;48.736;9.092;2022-08-19T07:26:17;27.07;;;22.67;;
8913;SDS011;4492;48.736;9.092;2022-08-19T07:28:46;29.70;;;22.90;;
8913;SDS011;4492;48.736;9.092;2022-08-19T07:31:13;28.67;;;21.20;;
8913;SDS011;4492;48.736;9.092;2022-08-19T07:33:43;28.33;;;21.57;;
8913;SDS011;4492;48.736;9.092;2022-08-19T07:36:10;27.47;;;21.40;;
8913;SDS011;4492;48.736;9.092;2022-08-19T07:38:38;30.20;;;22.93;;
8913;SDS011;4492;48.736;9.092;2022-08-19T07:41:06;30.60;;;22.67;;
8913;SDS011;4492;48.736;9.092;2022-08-19T07:43:35;32.03;;;22.03;;
8913;SDS011;4492;48.736;9.092;2022-08-19T07:46:00;28.40;;;21.83;;
8913;SDS011;4492;48.736;9.092;2022-08-19T07:48:26;26.30;;;20.47;;
8913;SDS011;4492;48.736;9.092;2022-08-19T07:50:54;28.90;;;21.10;;
8913;SDS011;4492;48.736;9.092;2022-08-19T07:53:22;28.17;;;21.43;;
8913;SDS011;4492;48.736;9.092;2022-08-19T07:55:48;25.63;;;19.33;;
8913;SDS011;4492;48.736;9.092;2022-08-19T07:58:15;25.20;;;20.07;;
8913;SDS011;4492;48.736;9.092;2022-08-19T08:00:43;26.27;;;20.43;;
8913;SDS011;4492;48.736;9.092;2022-08-19T08:03:11;23.83;;;20.17;;
8913;SDS011;4492;48.736;9.092;2022-08-19T08:05:37;28.47;;;20.53;;
8913;SDS011;4492;48.736;9.092;2022-08-19T08:08:22;25.33;;;20.20;;
8913;SDS011;4492;48.736;9.092;2022-08-19T08:10:47;28.27;;;20.27;;
8913;SDS011;4492;48.736;9.092;2022-08-19T08:13:13;25.93;;;20.07;;
8913;SDS011;4492;48.736;9.092;2022-08-19T08:15:39;23.27;;;19.10;;
8913;SDS011;4492;48.736;9.092;2022-08-19T08:18:04;26.37;;;20.60;;
8913;SDS011;4492;48.736;9.092;2022-08-19T08:20:30;25.60;;;19.80;;
8913;SDS011;4492;48.736;9.092;2022-08-19T08:22:56;26.13;;;19.67;;
8913;SDS011;4492;48.736;9.092;2022-08-19T08:25:57;24.93;;;19.00;;
8913;SDS011;4492;48.736;9.092;2022-08-19T08:28:23;22.60;;;18.73;;
8913;SDS011;4492;48.736;9.092;2022-08-19T08:30:50;24.63;;;18.23;;
8913;SDS011;4492;48.736;9.092;2022-08-19T08:33:17;23.93;;;19.23;;
8913;SDS011;4492;48.736;9.092;2022-08-19T08:35:44;25.63;;;19.53;;
8913;SDS011;4492;48.736;9.092;2022-08-19T08:38:10;23.07;;;18.73;;
8913;SDS011;4492;48.736;9.092;2022-08-19T08:40:38;24.97;;;18.93;;
8913;SDS011;4492;48.736;9.092;2022-08-19T08:43:31;23.77;;;19.27;;
8913;SDS011;4492;48.736;9.092;2022-08-19T08:46:01;27.03;;;17.93;;
8913;SDS011;4492;48.736;9.092;2022-08-19T08:48:32;24.30;;;19.53;;
8913;SDS011;4492;48.736;9.092;2022-08-19T08:51:05;24.10;;;18.70;;
8913;SDS011;4492;48.736;9.092;2022-08-19T08:53:35;26.90;;;19.23;;
8913;SDS011;4492;48.736;9.092;2022-08-19T08:56:03;28.20;;;19.03;;
8913;SDS011;4492;48.736;9.092;2022-08-19T08:58:32;21.90;;;18.37;;
8913;SDS011;4492;48.736;9.092;2022-08-19T09:01:08;23.17;;;17.23;;
8913;SDS011;4492;48.736;9.092;2022-08-19T09:03:36;23.77;;;18.63;;
8913;SDS011;4492;48.736;9.092;2022-08-19T09:06:04;22.97;;;18.53;;
8913;SDS011;4492;48.736;9.092;2022-08-19T09:11:03;25.87;;;18.70;;
8913;SDS011;4492;48.736;9.092;2022-08-19T09:13:42;21.00;;;18.03;;
8913;SDS011;4492;48.736;9.092;2022-08-19T09:16:22;24.80;;;19.47;;
8913;SDS011;4492;48.736;9.092;2022-08-19T09:18:54;21.57;;;17.50;;
8913;SDS011;4492;48.736;9.092;2022-08-19T09:21:23;22.97;;;18.53;;
8913;SDS011;4492;48.736;9.092;2022-08-19T09:23:50;22.07;;;18.00;;
8913;SDS011;4492;48.736;9.092;2022-08-19T09:26:17;20.13;;;17.80;;
8913;SDS011;4492;48.736;9.092;2022-08-19T09:28:46;20.00;;;17.10;;
8913;SDS011;4492;48.736;9.092;2022-08-19T09:31:14;22.10;;;17.23;;
8913;SDS011;4492;48.736;9.092;2022-08-19T09:33:41;23.27;;;18.13;;
8913;SDS011;4492;48.736;9.092;2022-08-19T09:36:10;25.33;;;17.73;;
8913;SDS011;4492;48.736;9.092;2022-08-19T09:38:38;21.97;;;17.67;;
8913;SDS011;4492;48.736;9.092;2022-08-19T09:41:06;22.70;;;18.23;;
8913;SDS011;4492;48.736;9.092;2022-08-19T09:43:33;19.87;;;17.77;;
8913;SDS011;4492;48.736;9.092;2022-08-19T09:46:02;18.67;;;16.23;;
8913;SDS011;4492;48.736;9.092;2022-08-19T09:48:30;19.87;;;17.20;;
8913;SDS011;4492;48.736;9.092;2022-08-19T09:51:01;21.03;;;17.13;;
8913;SDS011;4492;48.736;9.092;2022-08-19T09:53:32;28.37;;;17.10;;
8913;SDS011;4492;48.736;9.092;2022-08-19T09:56:02;21.80;;;16.23;;
8913;SDS011;4492;48.736;9.092;2022-08-19T09:58:29;18.53;;;15.27;;
8913;SDS011;4492;48.736;9.092;2022-08-19T10:00:56;20.80;;;18.17;;
8913;SDS011;4492;48.736;9.092;2022-08-19T10:03:23;24.37;;;16.20;;
8913;SDS011;4492;48.736;9.092;2022-08-19T10:05:50;21.30;;;15.20;;
8913;SDS011;4492;48.736;9.092;2022-08-19T10:08:17;16.97;;;15.10;;
8913;SDS011;4492;48.736;9.092;2022-08-19T10:10:47;20.53;;;15.07;;
8913;SDS011;4492;48.736;9.092;2022-08-19T10:13:15;17.50;;;14.80;;
8913;SDS011;4492;48.736;9.092;2022-08-19T10:15:43;17.20;;;15.37;;
8913;SDS011;4492;48.736;9.092;2022-08-19T10:18:09;19.33;;;14.70;;
8913;SDS011;4492;48.736;9.092;2022-08-19T10:20:34;20.07;;;14.97;;
8913;SDS011;4492;48.736;9.092;2022-08-19T10:23:01;16.93;;;14.43;;
8913;SDS011;4492;48.736;9.092;2022-08-19T10:25:27;15.83;;;14.00;;
8913;SDS011;4492;48.736;9.092;2022-08-19T10:27:53;17.40;;;14.07;;
8913;SDS011;4492;48.736;9.092;2022-08-19T10:30:19;16.57;;;14.50;;
8913;SDS011;4492;48.736;9.092;2022-08-19T10:32:46;16.43;;;13.03;;
8913;SDS011;4492;48.736;9.092;2022-08-19T10:35:12;19.50;;;14.57;;
8913;SDS011;4492;48.736;9.092;2022-08-19T10:37:38;15.67;;;13.70;;
8913;SDS011;4492;48.736;9.092;2022-08-19T10:40:05;17.27;;;13.90;;
8913;SDS011;4492;48.736;9.092;2022-08-19T10:42:33;16.27;;;12.80;;
8913;SDS011;4492;48.736;9.092;2022-08-19T10:44:59;14.83;;;12.10;;
8913;SDS011;4492;48.736;9.092;2022-08-19T10:47:25;13.93;;;12.43;;
8913;SDS011;4492;48.736;9.092;2022-08-19T10:49:50;16.10;;;12.33;;
8913;SDS011;4492;48.736;9.092;2022-08-19T10:52:35;13.83;;;10.63;;
8913;SDS011;4492;48.736;9.092;2022-08-19T10:55:02;12.33;;;11.03;;
8913;SDS011;4492;48.736;9.092;2022-08-19T10:57:47;14.23;;;11.97;;
8913;SDS011;4492;48.736;9.092;2022-08-19T11:00:13;13.30;;;11.40;;
8913;SDS011;4492;48.736;9.092;2022-08-19T11:02:40;13.40;;;11.53;;
8913;SDS011;4492;48.736;9.092;2022-08-19T11:05:06;17.03;;;11.33;;
8913;SDS011;4492;48.736;9.092;2022-08-19T11:07:34;15.33;;;11.10;;
8913;SDS011;4492;48.736;9.092;2022-08-19T11:10:01;13.03;;;11.30;;
8913;SDS011;4492;48.736;9.092;2022-08-19T11:12:28;13.43;;;11.00;;
8913;SDS011;4492;48.736;9.092;2022-08-19T11:14:53;11.87;;;10.77;;
8913;SDS011;4492;48.736;9.092;2022-08-19T11:17:19;12.67;;;11.37;;
8913;SDS011;4492;48.736;9.092;2022-08-19T11:19:45;13.00;;;10.80;;
8913;SDS011;4492;48.736;9.092;2022-08-19T11:22:12;10.40;;;9.27;;
8913;SDS011;4492;48.736;9.092;2022-08-19T11:24:37;12.27;;;10.23;;
8913;SDS011;4492;48.736;9.092;2022-08-19T11:27:06;12.77;;;10.07;;
8913;SDS011;4492;48.736;9.092;2022-08-19T11:29:34;14.73;;;11.70;;
8913;SDS011;4492;48.736;9.092;2022-08-19T11:32:04;12.30;;;10.77;;
8913;SDS011;4492;48.736;9.092;2022-08-19T11:34:34;10.23;;;9.23;;
8913;SDS011;4492;48.736;9.092;2022-08-19T11:37:00;13.77;;;11.00;;
8913;SDS011;4492;48.736;9.092;2022-08-19T11:39:27;12.30;;;10.63;;
8913;SDS011;4492;48.736;9.092;2022-08-19T11:41:55;13.50;;;11.63;;
8913;SDS011;4492;48.736;9.092;2022-08-19T11:44:22;13.77;;;10.33;;
8913;SDS011;4492;48.736;9.092;2022-08-19T11:46:48;11.63;;;10.40;;
8913;SDS011;4492;48.736;9.092;2022-08-19T11:49:14;12.47;;;10.60;;
8913;SDS011;4492;48.736;9.092;2022-08-19T11:51:44;11.90;;;10.70;;
8913;SDS011;4492;48.736;9.092;2022-08-19T11:54:10;11.17;;;9.73;;
8913;SDS011;4492;48.736;9.092;2022-08-19T11:56:37;11.73;;;9.67;;
8913;SDS011;4492;48.736;9.092;2022-08-19T11:59:03;10.53;;;9.53;;
8913;SDS011;4492;48.736;9.092;2022-08-19T12:01:29;11.90;;;10.00;;
8913;SDS011;4492;48.736;9.092;2022-08-19T12:03:56;11.23;;;9.13;;
8913;SDS011;4492;48.736;9.092;2022-08-19T12:06:23;12.60;;;10.67;;
8913;SDS011;4492;48.736;9.092;2022-08-19T12:08:54;10.27;;;9.17;;
8913;SDS011;4492;48.736;9.092;2022-08-19T12:11:21;12.10;;;9.80;;
8913;SDS011;4492;48.736;9.092;2022-08-19T12:13:47;10.73;;;9.73;;
8913;SDS011;4492;48.736;9.092;2022-08-19T12:16:15;10.50;;;9.40;;
8913;SDS011;4492;48.736;9.092;2022-08-19T12:18:46;9.37;;;8.40;;
8913;SDS011;4492;48.736;9.092;2022-08-19T12:21:12;10.40;;;8.87;;
8913;SDS011;4492;48.736;9.092;2022-08-19T12:23:40;11.90;;;9.67;;
8913;SDS011;4492;48.736;9.092;2022-08-19T12:26:06;9.40;;;8.37;;
8913;SDS011;4492;48.736;9.092;2022-08-19T12:28:34;10.07;;;8.83;;
8913;SDS011;4492;48.736;9.092;2022-08-19T12:30:59;9.87;;;8.73;;
8913;SDS011;4492;48.736;9.092;2022-08-19T12:33:25;9.10;;;8.20;;
8913;SDS011;4492;48.736;9.092;2022-08-19T12:35:52;9.27;;;8.37;;
8913;SDS011;4492;48.736;9.092;2022-08-19T12:38:19;11.90;;;7.73;;
8913;SDS011;4492;48.736;9.092;2022-08-19T12:40:45;8.43;;;7.63;;
8913;SDS011;4492;48.736;9.092;2022-08-19T12:43:12;8.47;;;7.47;;
8913;SDS011;4492;48.736;9.092;2022-08-19T12:45:38;8.20;;;7.40;;
8913;SDS011;4492;48.736;9.092;2022-08-19T12:48:04;9.47;;;8.47;;
8913;SDS011;4492;48.736;9.092;2022-08-19T12:50:30;9.40;;;7.70;;
8913;SDS011;4492;48.736;9.092;2022-08-19T12:52:56;8.33;;;7.53;;
8913;SDS011;4492;48.736;9.092;2022-08-19T12:55:23;7.00;;;6.50;;
8913;SDS011;4492;48.736;9.092;2022-08-19T12:57:50;7.67;;;6.97;;
8913;SDS011;4492;48.736;9.092;2022-08-19T13:00:16;7.30;;;6.60;;
8913;SDS011;4492;48.736;9.092;2022-08-19T13:02:46;7.70;;;6.90;;
8913;SDS011;4492;48.736;9.092;2022-08-19T13:05:15;7.97;;;7.17;;
8913;SDS011;4492;48.736;9.092;2022-08-19T13:07:45;56.13;;;11.83;;
8913;SDS011;4492;48.736;9.092;2022-08-19T13:10:11;19.80;;;8.63;;
8913;SDS011;4492;48.736;9.092;2022-08-19T13:12:38;8.60;;;7.63;;
8913;SDS011;4492;48.736;9.092;2022-08-19T13:15:06;9.00;;;8.27;;
8913;SDS011;4492;48.736;9.092;2022-08-19T13:17:33;8.47;;;7.40;;
8913;SDS011;4492;48.736;9.092;2022-08-19T13:19:59;8.30;;;7.60;;
8913;SDS011;4492;48.736;9.092;2022-08-19T13:22:24;8.37;;;7.40;;
8913;SDS011;4492;48.736;9.092;2022-08-19T13:24:50;8.40;;;7.13;;
8913;SDS011;4492;48.736;9.092;2022-08-19T13:27:15;11.00;;;9.63;;
8913;SDS011;4492;48.736;9.092;2022-08-19T13:29:41;11.80;;;10.70;;
8913;SDS011;4492;48.736;9.092;2022-08-19T13:32:39;15.13;;;13.53;;
8913;SDS011;4492;48.736;9.092;2022-08-19T13:35:23;19.53;;;14.17;;
8913;SDS011;4492;48.736;9.092;2022-08-19T13:37:49;20.20;;;15.73;;
8913;SDS011;4492;48.736;9.092;2022-08-19T13:40:16;21.77;;;15.83;;
8913;SDS011;4492;48.736;9.092;2022-08-19T13:42:44;16.50;;;14.80;;
8913;SDS011;4492;48.736;9.092;2022-08-19T13:45:12;19.47;;;17.47;;
8913;SDS011;4492;48.736;9.092;2022-08-19T13:47:40;19.23;;;17.20;;
8913;SDS011;4492;48.736;9.092;2022-08-19T13:50:10;16.87;;;15.13;;
8913;SDS011;4492;48.736;9.092;2022-08-19T13:52:38;17.40;;;15.60;;
8913;SDS011;4492;48.736;9.092;2022-08-19T13:55:04;18.30;;;15.80;;
8913;SDS011;4492;48.736;9.092;2022-08-19T13:57:30;17.50;;;14.77;;
8913;SDS011;4492;48.736;9.092;2022-08-19T13:59:56;18.47;;;16.57;;
8913;SDS011;4492;48.736;9.092;2022-08-19T14:02:22;15.50;;;13.90;;
8913;SDS011;4492;48.736;9.092;2022-08-19T14:04:48;15.73;;;14.13;;
8913;SDS011;4492;48.736;9.092;2022-08-19T14:07:14;16.40;;;14.60;;
8913;SDS011;4492;48.736;9.092;2022-08-19T14:09:40;16.23;;;14.50;;
8913;SDS011;4492;48.736;9.092;2022-08-19T14:12:05;20.90;;;16.50;;
8913;SDS011;4492;48.736;9.092;2022-08-19T14:14:31;17.90;;;15.37;;
8913;SDS011;4492;48.736;9.092;2022-08-19T14:16:57;17.03;;;15.37;;
8913;SDS011;4492;48.736;9.092;2022-08-19T14:19:22;18.47;;;16.60;;
8913;SDS011;4492;48.736;9.092;2022-08-19T14:21:48;19.77;;;17.43;;
8913;SDS011;4492;48.736;9.092;2022-08-19T14:24:14;19.37;;;17.13;;
8913;SDS011;4492;48.736;9.092;2022-08-19T14:26:39;17.87;;;15.97;;
8913;SDS011;4492;48.736;9.092;2022-08-19T14:29:05;18.43;;;16.30;;
8913;SDS011;4492;48.736;9.092;2022-08-19T14:31:30;18.20;;;16.30;;
8913;SDS011;4492;48.736;9.092;2022-08-19T14:33:56;17.97;;;16.17;;
8913;SDS011;4492;48.736;9.092;2022-08-19T14:36:21;18.03;;;16.10;;
8913;SDS011;4492;48.736;9.092;2022-08-19T14:38:47;19.03;;;15.87;;
8913;SDS011;4492;48.736;9.092;2022-08-19T14:41:18;19.57;;;16.70;;
8913;SDS011;4492;48.736;9.092;2022-08-19T14:43:46;16.47;;;14.73;;
8913;SDS011;4492;48.736;9.092;2022-08-19T14:46:17;17.37;;;15.53;;
8913;SDS011;4492;48.736;9.092;2022-08-19T14:48:45;17.07;;;15.37;;
8913;SDS011;4492;48.736;9.092;2022-08-19T14:51:11;15.03;;;13.43;;
8913;SDS011;4492;48.736;9.092;2022-08-19T14:53:37;16.30;;;14.60;;
8913;SDS011;4492;48.736;9.092;2022-08-19T14:56:07;15.00;;;13.50;;
8913;SDS011;4492;48.736;9.092;2022-08-19T14:58:38;14.37;;;13.10;;